Time;durP1;ratioP1;P1;durP2;ratioP2;P2;SDS_P1;SDS_P2;PMS_P1;PMS_P2;Temp;Humidity;BMP_temperature;BMP_pressure;BME280_temperature;BME280_humidity;BME280_pressure;Samples;Min_cycle;Max_cycle;Signal;HPM_P1;HPM_P2
2021/12/01 00:01:26;;;;;;;2.60;2.10;;;;;;;-0.14;81.01;96519.63;102102;1312;62694;-23
2021/12/01 00:03:55;;;;;;;1.70;1.40;;;;;;;0.30;79.57;96518.98;102090;1313;61082;-23
2021/12/01 00:10:57;;;;;;;3.70;3.20;;;;;;;-0.15;80.52;96523.29;102212;1313;77905;-23
2021/12/01 00:13:28;;;;;;;3.10;2.20;;;;;;;-0.21;81.19;96521.52;102004;1312;74332;-23
2021/12/01 00:16:00;;;;;;;1.70;1.60;;;;;;;0.22;79.49;96519.92;101950;1312;61082;-23
2021/12/01 00:18:30;;;;;;;2.90;1.60;;;;;;;0.23;79.32;96512.36;101949;1316;61989;-23
2021/12/01 00:20:58;;;;;;;1.80;1.60;;;;;;;0.21;79.41;96505.15;102153;1312;75597;-23
2021/12/01 00:23:27;;;;;;;1.40;1.30;;;;;;;-0.04;80.14;96503.05;102158;1312;76076;-23
2021/12/01 00:25:56;;;;;;;2.80;2.10;;;;;;;0.30;79.50;96504.98;102315;1314;73274;-23
2021/12/01 00:28:24;;;;;;;2.60;1.60;;;;;;;0.64;78.24;96509.86;102242;1314;61187;-24
2021/12/01 00:30:53;;;;;;;2.60;1.60;;;;;;;0.58;78.09;96508.50;102308;1313;61236;-23
2021/12/01 00:33:22;;;;;;;4.60;3.10;;;;;;;0.42;78.28;96515.58;102208;1313;74481;-23
2021/12/01 00:35:52;;;;;;;2.00;1.40;;;;;;;0.16;79.48;96497.89;102084;1313;75085;-23
2021/12/01 00:38:21;;;;;;;3.40;2.10;;;;;;;0.44;79.27;96508.96;101900;1313;73006;-23
2021/12/01 00:40:49;;;;;;;3.90;2.90;;;;;;;0.65;78.50;96505.71;102121;1312;62615;-23
2021/12/01 00:43:18;;;;;;;1.80;1.40;;;;;;;0.54;78.67;96507.50;102264;1312;61781;-23
2021/12/01 00:45:51;;;;;;;3.50;1.30;;;;;;;0.28;79.56;96504.44;102281;1312;73920;-23
2021/12/01 00:48:20;;;;;;;3.10;2.40;;;;;;;0.27;80.43;96501.76;102127;1312;74341;-23
2021/12/01 00:50:49;;;;;;;1.70;1.40;;;;;;;0.71;79.19;96502.35;101703;1315;73071;-23
2021/12/01 00:53:18;;;;;;;2.70;2.40;;;;;;;0.69;78.74;96499.75;101890;1315;61173;-24
2021/12/01 00:55:47;;;;;;;2.10;1.60;;;;;;;0.45;79.69;96497.27;101944;1312;62204;-24
2021/12/01 00:58:16;;;;;;;2.00;1.40;;;;;;;0.29;80.13;96494.31;101797;1314;188187;-23
2021/12/01 01:00:45;;;;;;;1.50;1.40;;;;;;;0.49;80.13;96494.85;102042;1313;76049;-23
2021/12/01 01:03:13;;;;;;;3.10;2.70;;;;;;;0.88;78.86;96496.15;101996;1313;70651;-23
2021/12/01 01:05:43;;;;;;;1.70;1.10;;;;;;;0.92;78.20;96494.10;101999;1312;62442;-23
2021/12/01 01:08:15;;;;;;;3.50;2.00;;;;;;;0.75;78.75;96495.15;101897;1314;61849;-23
2021/12/01 01:18:51;;;;;;;2.80;2.10;;;;;;;0.95;78.59;96485.71;102111;1312;62227;-23
2021/12/01 01:21:20;;;;;;;2.80;1.30;;;;;;;0.75;79.04;96486.83;102092;1312;62390;-23
2021/12/01 01:23:49;;;;;;;0.90;0.70;;;;;;;0.63;79.31;96491.52;102035;1312;75398;-23
2021/12/01 01:26:19;;;;;;;1.80;1.40;;;;;;;0.47;80.07;96487.02;102060;1317;75104;-23
2021/12/01 01:28:50;;;;;;;1.10;0.90;;;;;;;0.98;78.91;96488.98;101917;1314;74172;-23
2021/12/01 01:31:19;;;;;;;2.30;1.50;;;;;;;1.20;77.70;96485.80;102133;1313;62117;-23
2021/12/01 01:33:48;;;;;;;1.30;1.20;;;;;;;1.12;77.64;96485.44;101899;1316;61819;-23
2021/12/01 01:36:17;;;;;;;1.10;1.00;;;;;;;0.88;78.45;96486.58;102148;1314;74576;-23
2021/12/01 01:38:46;;;;;;;2.40;1.10;;;;;;;0.62;79.17;96480.55;102286;1317;76071;-23
2021/12/01 01:41:15;;;;;;;1.60;1.10;;;;;;;0.85;79.45;96483.59;102261;1314;73574;-23
2021/12/01 01:43:46;;;;;;;1.10;0.90;;;;;;;1.34;77.91;96480.38;102259;1313;61256;-23
2021/12/01 01:46:14;;;;;;;2.00;0.90;;;;;;;1.41;77.24;96483.77;101917;1315;61097;-24
2021/12/01 01:48:49;;;;;;;0.70;0.70;;;;;;;1.20;77.95;96483.29;102310;1312;74192;-23
2021/12/01 01:51:19;;;;;;;1.40;1.00;;;;;;;0.97;78.49;96482.41;101898;1316;75933;-23
2021/12/01 01:53:50;;;;;;;0.60;0.60;;;;;;;0.71;79.73;96478.91;101910;1315;74236;-23
2021/12/01 01:56:19;;;;;;;1.70;1.30;;;;;;;0.87;80.22;96485.80;102162;1314;62997;-23
2021/12/01 01:58:47;;;;;;;0.80;0.80;;;;;;;1.35;78.77;96480.13;102090;1314;62228;-23
2021/12/01 02:04:00;;;;;;;1.20;1.10;;;;;;;1.20;78.78;96485.69;102198;1318;76046;-23
2021/12/01 02:06:31;;;;;;;1.80;0.90;;;;;;;0.95;79.61;96483.48;102280;1312;74342;-23
2021/12/01 02:08:59;;;;;;;1.40;1.00;;;;;;;0.73;80.58;96481.30;102305;1313;61213;-24
2021/12/01 02:11:29;;;;;;;1.80;1.10;;;;;;;0.86;81.06;96486.08;102059;1312;61137;-24
2021/12/01 02:13:58;;;;;;;1.50;0.70;;;;;;;1.36;79.10;96482.96;102221;1317;75689;-25
2021/12/01 02:16:26;;;;;;;1.90;1.00;;;;;;;1.37;78.98;96484.41;102183;1312;76051;-25
2021/12/01 02:18:55;;;;;;;1.50;0.90;;;;;;;1.21;79.09;96487.29;101970;1312;73130;-23
2021/12/01 02:23:48;;;;;;;0.60;0.60;;;;;;;0.80;80.78;96491.52;98907;1352;601081;-23
2021/12/01 02:26:19;;;;;;;0.90;0.80;;;;;;;0.77;81.72;96491.10;100858;1329;62734;-23
2021/12/01 02:28:50;;;;;;;1.60;0.90;;;;;;;1.34;79.61;96492.05;100970;1329;62063;-23
2021/12/01 02:31:18;;;;;;;0.80;0.60;;;;;;;1.52;78.51;96496.70;100849;1332;73735;-25
2021/12/01 02:33:48;;;;;;;0.50;0.50;;;;;;;1.33;78.83;96499.29;101200;1329;73363;-23
2021/12/01 02:36:16;;;;;;;0.60;0.60;;;;;;;1.13;79.55;96505.56;100962;1326;187051;-24
2021/12/01 02:38:46;;;;;;;0.50;0.50;;;;;;;0.88;80.34;96506.21;101390;1320;61110;-23
2021/12/01 02:41:14;;;;;;;0.50;0.50;;;;;;;0.73;81.37;96508.64;101153;1324;61192;-22
2021/12/01 02:43:44;;;;;;;0.50;0.50;;;;;;;1.09;80.40;96512.06;101521;1320;72446;-23
2021/12/01 02:46:13;;;;;;;0.60;0.60;;;;;;;1.43;78.89;96514.04;101769;1326;76056;-23
2021/12/01 02:48:42;;;;;;;1.30;0.70;;;;;;;1.44;78.62;96519.73;101452;1327;74453;-23
2021/12/01 02:51:11;;;;;;;1.10;1.00;;;;;;;1.21;79.35;96518.95;101490;1326;62257;-23
2021/12/01 02:53:40;;;;;;;1.00;0.70;;;;;;;0.97;80.38;96527.89;101608;1326;61225;-23
2021/12/01 02:56:09;;;;;;;0.90;0.60;;;;;;;0.78;81.24;96526.04;101291;1328;73791;-23
2021/12/01 02:58:42;;;;;;;1.00;0.70;;;;;;;0.92;81.01;96528.13;101476;1325;76124;-23
2021/12/01 03:01:16;;;;;;;0.80;0.60;;;;;;;1.36;79.50;96524.70;101200;1325;74807;-23
2021/12/01 03:03:45;;;;;;;1.50;0.80;;;;;;;1.41;78.87;96525.60;101233;1320;61265;-23
2021/12/01 03:06:14;;;;;;;0.70;0.70;;;;;;;1.23;79.45;96526.29;101619;1325;61132;-23
2021/12/01 03:08:43;;;;;;;0.80;0.70;;;;;;;1.00;80.22;96530.20;101430;1326;75000;-24
2021/12/01 03:11:12;;;;;;;0.70;0.60;;;;;;;0.76;81.26;96533.69;101360;1320;75254;-24
2021/12/01 03:13:40;;;;;;;0.80;0.50;;;;;;;0.94;81.21;96539.92;101088;1328;71528;-23
2021/12/01 03:16:08;;;;;;;0.80;0.60;;;;;;;1.43;79.29;96543.40;101205;1326;61148;-23
2021/12/01 03:18:37;;;;;;;0.80;0.70;;;;;;;1.56;78.61;96552.04;101197;1325;61119;-24
2021/12/01 03:21:06;;;;;;;0.60;0.50;;;;;;;1.38;78.92;96550.80;101191;1326;74606;-23
2021/12/01 03:23:34;;;;;;;0.40;0.40;;;;;;;1.11;80.04;96558.19;101192;1326;75157;-23
2021/12/01 03:26:03;;;;;;;0.70;0.60;;;;;;;0.87;81.18;96559.93;101208;1325;74754;-23
2021/12/01 03:28:35;;;;;;;0.40;0.40;;;;;;;0.66;82.43;96561.63;101135;1325;62786;-24
2021/12/01 03:31:04;;;;;;;0.80;0.60;;;;;;;1.15;81.13;96569.27;101058;1329;61107;-23
2021/12/01 03:33:33;;;;;;;0.50;0.50;;;;;;;1.67;79.00;96576.00;101484;1320;75107;-24
2021/12/01 03:36:02;;;;;;;0.60;0.60;;;;;;;1.70;78.67;96583.04;101755;1323;75021;-24
2021/12/01 03:38:30;;;;;;;0.70;0.50;;;;;;;1.35;79.38;96573.27;101782;1318;72433;-24
2021/12/01 03:40:59;;;;;;;0.40;0.40;;;;;;;1.03;80.62;96576.06;101775;1317;61265;-24
2021/12/01 03:43:28;;;;;;;0.60;0.50;;;;;;;0.84;81.61;96584.30;101766;1317;61119;-24
2021/12/01 03:45:57;;;;;;;0.40;0.40;;;;;;;0.61;82.98;96581.52;101760;1317;74942;-25
2021/12/01 03:48:26;;;;;;;0.30;0.30;;;;;;;1.08;81.55;96583.55;101814;1317;75275;-24
2021/12/01 03:50:54;;;;;;;0.50;0.50;;;;;;;1.54;79.50;96587.95;101790;1316;74433;-24
2021/12/01 03:53:23;;;;;;;1.50;0.50;;;;;;;1.50;79.48;96594.13;101693;1322;61228;-24
2021/12/01 03:55:52;;;;;;;0.90;0.50;;;;;;;1.33;79.73;96597.42;101398;1324;61315;-24
2021/12/01 03:58:20;;;;;;;0.80;0.60;;;;;;;0.97;81.11;96598.46;101769;1317;74753;-24
2021/12/01 04:00:49;;;;;;;0.70;0.70;;;;;;;0.73;82.22;96605.13;101730;1317;76235;-25
2021/12/01 04:03:17;;;;;;;0.60;0.60;;;;;;;0.57;83.33;96606.80;101786;1320;74831;-25
2021/12/01 04:05:47;;;;;;;0.60;0.50;;;;;;;1.10;81.65;96613.28;101769;1320;61198;-25
2021/12/01 04:08:16;;;;;;;0.50;0.50;;;;;;;1.52;79.77;96613.66;101815;1320;61194;-25
2021/12/01 04:10:44;;;;;;;0.60;0.60;;;;;;;1.45;79.55;96621.17;101757;1323;72897;-25
2021/12/01 04:13:13;;;;;;;0.40;0.40;;;;;;;1.28;79.99;96623.09;101775;1319;75194;-25
2021/12/01 04:15:42;;;;;;;1.10;0.60;;;;;;;0.98;81.18;96629.48;101754;1323;74480;-25
2021/12/01 04:18:11;;;;;;;0.70;0.50;;;;;;;0.78;81.82;96635.02;101785;1323;61214;-26
2021/12/01 04:20:39;;;;;;;0.50;0.50;;;;;;;0.75;82.75;96633.56;101751;1317;61229;-26
2021/12/01 04:23:18;;;;;;;0.50;0.50;;;;;;;1.23;80.77;96639.21;101743;1322;74726;-26
2021/12/01 04:25:47;;;;;;;0.80;0.70;;;;;;;1.31;80.25;96643.90;101737;1322;76278;-26
2021/12/01 04:28:15;;;;;;;2.10;1.10;;;;;;;1.08;80.63;96640.09;101620;1317;73499;-26
2021/12/01 04:30:44;;;;;;;1.30;1.20;;;;;;;0.89;81.38;96642.67;101661;1323;61189;-25
2021/12/01 04:33:14;;;;;;;1.20;1.00;;;;;;;0.57;82.94;96650.27;101623;1323;61173;-25
2021/12/01 04:35:44;;;;;;;1.20;0.80;;;;;;;0.78;82.80;96646.58;101677;1322;73808;-25
2021/12/01 04:38:12;;;;;;;1.60;1.10;;;;;;;1.22;80.51;96655.75;101716;1317;75397;-25
2021/12/01 04:40:41;;;;;;;2.20;1.50;;;;;;;1.16;80.76;96653.02;101725;1317;72945;-25
2021/12/01 04:43:10;;;;;;;3.30;2.40;;;;;;;0.93;81.51;96652.28;101777;1322;61227;-25
2021/12/01 04:45:42;;;;;;;1.70;1.40;;;;;;;0.58;82.92;96643.75;101809;1323;61097;-25
2021/12/01 04:48:10;;;;;;;2.10;1.30;;;;;;;0.67;83.16;96650.21;101749;1318;74932;-25
2021/12/01 04:50:39;;;;;;;2.00;1.60;;;;;;;1.04;81.75;96667.28;101779;1317;76093;-26
2021/12/01 04:53:08;;;;;;;3.20;2.20;;;;;;;1.06;81.33;96675.64;101771;1316;74236;-26
2021/12/01 04:55:38;;;;;;;2.70;1.60;;;;;;;0.82;82.25;96675.34;101687;1317;62449;-26
2021/12/01 04:58:07;;;;;;;3.70;2.40;;;;;;;0.65;82.93;96678.77;101729;1317;61182;-25
2021/12/01 05:00:37;;;;;;;1.50;1.30;;;;;;;0.52;83.90;96685.23;101742;1317;74728;-25
2021/12/01 05:03:06;;;;;;;4.20;2.70;;;;;;;0.85;82.65;96687.73;101752;1317;76115;-25
2021/12/01 05:05:50;;;;;;;3.40;2.30;;;;;;;0.95;82.45;96696.84;101769;1317;74505;-25
2021/12/01 05:08:20;;;;;;;3.00;2.30;;;;;;;0.93;81.91;96697.84;101749;1317;61255;-25
2021/12/01 05:10:49;;;;;;;3.20;2.40;;;;;;;0.73;82.70;96691.93;101417;1325;61811;-25
2021/12/01 05:13:18;;;;;;;3.60;2.90;;;;;;;0.55;83.42;96696.87;101424;1325;73003;-25
2021/12/01 05:15:47;;;;;;;3.10;2.40;;;;;;;0.56;83.80;96697.14;101709;1320;76166;-25
2021/12/01 05:18:16;;;;;;;3.50;2.30;;;;;;;0.89;82.31;96707.39;101742;1317;74410;-25
2021/12/01 05:20:45;;;;;;;3.50;2.00;;;;;;;0.87;82.32;96708.58;101665;1317;61103;-25
2021/12/01 05:23:15;;;;;;;3.90;2.60;;;;;;;0.76;82.38;96716.63;101745;1319;61504;-25
2021/12/01 05:25:45;;;;;;;3.50;2.10;;;;;;;0.58;83.46;96721.94;101659;1320;73786;-25
2021/12/01 05:28:14;;;;;;;4.90;2.70;;;;;;;0.50;83.72;96733.28;101626;1317;76024;-25
2021/12/01 05:30:43;;;;;;;3.40;2.50;;;;;;;0.72;83.17;96734.70;101728;1317;73434;-26
2021/12/01 05:33:14;;;;;;;3.60;2.70;;;;;;;0.95;81.89;96742.99;101718;1322;62292;-25
2021/12/01 05:35:46;;;;;;;4.00;3.00;;;;;;;0.82;82.46;96756.64;101706;1319;62122;-25
2021/12/01 05:38:15;;;;;;;4.50;3.40;;;;;;;0.60;83.30;96758.16;101660;1319;75017;-26
2021/12/01 05:40:47;;;;;;;3.80;2.80;;;;;;;0.34;84.49;96766.14;101777;1319;75508;-26
2021/12/01 05:43:15;;;;;;;3.50;2.60;;;;;;;0.49;84.44;96774.55;101771;1317;74430;-25
2021/12/01 05:45:45;;;;;;;2.90;1.70;;;;;;;0.83;82.85;96788.98;101795;1317;61233;-26
2021/12/01 05:48:14;;;;;;;2.90;2.40;;;;;;;0.86;82.46;96788.77;101546;1320;61911;-25
2021/12/01 05:50:43;;;;;;;3.10;2.60;;;;;;;0.50;83.68;96791.05;101733;1319;74905;-25
2021/12/01 05:53:13;;;;;;;2.80;2.20;;;;;;;0.43;83.80;96795.79;101782;1320;75263;-25
2021/12/01 05:55:42;;;;;;;3.90;2.60;;;;;;;0.52;83.64;96801.78;101719;1320;74418;-25
2021/12/01 05:58:10;;;;;;;4.30;3.00;;;;;;;0.78;82.46;96804.61;101650;1320;61214;-25
2021/12/01 06:00:39;;;;;;;3.00;2.70;;;;;;;0.84;82.00;96813.35;101662;1317;61108;-25
2021/12/01 06:03:08;;;;;;;3.80;3.30;;;;;;;0.58;82.77;96808.98;101691;1317;74674;-25
2021/12/01 06:05:37;;;;;;;3.70;2.90;;;;;;;0.37;83.46;96815.03;101667;1320;75402;-26
2021/12/01 06:08:05;;;;;;;4.10;3.50;;;;;;;0.34;83.95;96827.18;101691;1317;74601;-25
2021/12/01 06:10:34;;;;;;;4.00;3.00;;;;;;;0.74;82.48;96833.77;101763;1322;61180;-25
2021/12/01 06:13:03;;;;;;;3.80;3.30;;;;;;;0.53;82.84;96836.38;101727;1317;61208;-25
2021/12/01 06:15:32;;;;;;;5.50;2.80;;;;;;;0.51;83.32;96841.98;101705;1317;74942;-25
2021/12/01 06:18:00;;;;;;;3.40;2.60;;;;;;;0.31;83.85;96853.02;101633;1323;76176;-25
2021/12/01 06:20:29;;;;;;;4.40;2.80;;;;;;;0.37;84.12;96855.00;101676;1317;74442;-25
2021/12/01 06:22:57;;;;;;;7.10;2.60;;;;;;;0.59;83.07;96860.20;101667;1317;61190;-25
2021/12/01 06:25:26;;;;;;;3.60;2.50;;;;;;;0.58;82.77;96867.79;101762;1322;61130;-25
2021/12/01 06:27:55;;;;;;;3.20;2.60;;;;;;;0.43;82.97;96876.02;101776;1317;74676;-25
2021/12/01 06:30:24;;;;;;;3.10;2.50;;;;;;;0.26;83.71;96879.05;101847;1317;74665;-25
2021/12/01 06:32:53;;;;;;;3.40;2.80;;;;;;;0.25;84.01;96890.16;101616;1323;74656;-25
2021/12/01 06:35:22;;;;;;;3.70;2.40;;;;;;;0.61;82.71;96896.77;101760;1316;61055;-25
2021/12/01 06:37:52;;;;;;;2.20;1.50;;;;;;;0.76;81.82;96898.16;101701;1317;62373;-25
2021/12/01 06:40:20;;;;;;;3.70;2.90;;;;;;;0.70;81.88;96908.17;101718;1317;76260;-25
2021/12/01 06:42:49;;;;;;;4.50;2.80;;;;;;;0.43;83.01;96908.16;101852;1316;75379;-25
2021/12/01 06:45:19;;;;;;;4.50;2.80;;;;;;;0.37;82.92;96917.42;101798;1316;74589;-25
2021/12/01 06:47:47;;;;;;;5.90;2.50;;;;;;;0.70;81.94;96922.70;101705;1320;61219;-25
2021/12/01 06:50:16;;;;;;;4.30;3.00;;;;;;;0.85;80.88;96926.05;101715;1320;61100;-25
2021/12/01 06:52:45;;;;;;;2.50;2.30;;;;;;;0.77;80.79;96931.60;101582;1322;74316;-25
2021/12/01 06:55:13;;;;;;;3.20;2.50;;;;;;;0.44;81.49;96929.05;101695;1317;76101;-25
2021/12/01 06:57:42;;;;;;;3.30;2.50;;;;;;;0.25;82.44;96939.30;101772;1322;73256;-25
2021/12/01 07:00:12;;;;;;;4.40;2.90;;;;;;;0.14;82.94;96943.21;101824;1317;62720;-25
2021/12/01 07:02:40;;;;;;;4.50;2.60;;;;;;;0.52;81.63;96941.10;101786;1317;61157;-25
2021/12/01 07:05:09;;;;;;;3.40;2.80;;;;;;;0.49;81.02;96942.56;101704;1319;75951;-25
2021/12/01 07:07:38;;;;;;;4.20;3.00;;;;;;;0.31;81.58;96947.73;101677;1317;75226;-25
2021/12/01 07:10:09;;;;;;;5.30;3.50;;;;;;;0.23;81.85;96953.99;101766;1317;74478;-25
2021/12/01 07:12:38;;;;;;;2.60;2.40;;;;;;;0.05;82.42;96955.43;101686;1319;61340;-25
2021/12/01 07:15:07;;;;;;;3.30;2.80;;;;;;;0.36;81.68;96960.74;101570;1325;61209;-25
2021/12/01 07:17:40;;;;;;;3.10;2.80;;;;;;;0.52;81.03;96965.69;101518;1319;75671;-25
2021/12/01 07:20:09;;;;;;;3.80;3.00;;;;;;;0.31;81.37;96964.66;101671;1317;76007;-25
2021/12/01 07:22:37;;;;;;;6.10;2.80;;;;;;;0.11;82.11;96978.05;101774;1317;73530;-25
2021/12/01 07:25:06;;;;;;;4.90;3.30;;;;;;;0.12;82.76;96988.23;101799;1317;61274;-25
2021/12/01 07:27:35;;;;;;;3.00;2.70;;;;;;;0.22;82.37;96995.71;101778;1322;61327;-25
2021/12/01 07:30:04;;;;;;;4.60;3.20;;;;;;;0.50;81.40;97005.48;101795;1316;74639;-25
2021/12/01 07:32:33;;;;;;;5.10;3.60;;;;;;;0.42;81.55;97003.34;101420;1316;76582;-25
2021/12/01 07:35:07;;;;;;;4.40;3.30;;;;;;;0.34;82.10;97005.92;101655;1316;74149;-25
2021/12/01 07:37:36;;;;;;;5.90;4.00;;;;;;;0.13;82.56;97007.10;101370;1324;61213;-25
2021/12/01 07:40:05;;;;;;;5.10;3.60;;;;;;;0.03;82.98;97021.60;101746;1316;61226;-25
2021/12/01 07:42:34;;;;;;;3.80;3.10;;;;;;;0.49;81.95;97032.31;101774;1316;73861;-26
2021/12/01 07:45:04;;;;;;;3.70;3.10;;;;;;;0.42;81.63;97027.90;102105;1313;73999;-25
2021/12/01 07:47:32;;;;;;;5.70;3.50;;;;;;;0.25;81.99;97023.81;101876;1316;74607;-25
2021/12/01 07:50:01;;;;;;;5.30;4.30;;;;;;;0.18;82.19;97038.29;102303;1313;61168;-25
2021/12/01 07:52:31;;;;;;;6.10;3.20;;;;;;;-0.01;83.11;97041.02;101958;1314;61210;-25
2021/12/01 07:54:59;;;;;;;6.00;3.30;;;;;;;0.44;81.65;97054.75;102123;1313;75584;-25
2021/12/01 07:57:28;;;;;;;5.70;3.70;;;;;;;0.54;81.23;97059.29;102060;1313;75848;-25
2021/12/01 07:59:56;;;;;;;4.40;3.40;;;;;;;0.35;81.58;97056.23;102236;1316;74491;-25
2021/12/01 08:02:25;;;;;;;5.60;3.80;;;;;;;0.26;82.12;97070.70;102339;1313;61097;-24
2021/12/01 08:04:54;;;;;;;5.20;3.70;;;;;;;0.24;82.05;97072.38;102274;1313;61274;-25
2021/12/01 08:07:22;;;;;;;5.10;3.50;;;;;;;0.32;81.97;97080.98;102076;1313;74740;-25
2021/12/01 08:09:51;;;;;;;5.40;3.70;;;;;;;0.63;80.64;97083.58;102048;1313;75218;-25
2021/12/01 08:12:19;;;;;;;4.70;3.80;;;;;;;0.58;80.79;97097.45;101948;1314;74375;-25
2021/12/01 08:14:48;;;;;;;4.00;3.50;;;;;;;0.38;81.52;97102.27;101982;1313;61144;-25
2021/12/01 08:17:17;;;;;;;6.10;4.90;;;;;;;0.25;81.86;97104.92;102036;1314;61271;-25
2021/12/01 08:19:45;;;;;;;6.20;4.00;;;;;;;0.30;81.93;97111.03;101918;1313;75415;-25
2021/12/01 08:22:13;;;;;;;3.90;3.10;;;;;;;0.47;80.92;97105.36;102224;1313;75908;-25
2021/12/01 08:24:42;;;;;;;5.80;4.50;;;;;;;0.75;80.37;97116.92;101811;1320;73443;-25
2021/12/01 08:27:10;;;;;;;5.60;4.60;;;;;;;0.65;80.43;97119.52;102278;1313;61456;-25
2021/12/01 08:29:39;;;;;;;6.00;4.40;;;;;;;0.42;81.45;97129.83;101941;1317;61156;-25
2021/12/01 08:32:07;;;;;;;6.50;4.70;;;;;;;0.18;82.54;97133.54;102016;1313;75439;-24
2021/12/01 08:34:36;;;;;;;7.20;5.30;;;;;;;0.41;81.75;97139.61;102091;1313;75964;-25
2021/12/01 08:37:08;;;;;;;7.60;5.00;;;;;;;0.47;81.29;97146.87;102245;1313;74588;-25
2021/12/01 08:39:36;;;;;;;7.20;5.30;;;;;;;0.39;81.44;97156.48;102101;1313;61182;-25
2021/12/01 08:42:05;;;;;;;6.50;4.30;;;;;;;0.45;81.44;97158.79;102021;1314;61087;-25
2021/12/01 08:44:33;;;;;;;6.00;4.40;;;;;;;0.16;82.29;97156.05;101997;1313;74156;-25
2021/12/01 08:47:04;;;;;;;7.50;4.80;;;;;;;0.31;82.09;97162.14;101996;1313;75903;-25
2021/12/01 08:49:32;;;;;;;6.40;4.10;;;;;;;0.69;80.64;97166.34;101728;1316;74514;-25
2021/12/01 08:52:01;;;;;;;7.00;4.20;;;;;;;0.65;80.39;97167.15;101970;1313;61233;-25
2021/12/01 08:54:29;;;;;;;5.60;4.20;;;;;;;0.47;81.09;97171.51;101957;1320;61180;-25
2021/12/01 08:57:00;;;;;;;5.40;4.10;;;;;;;0.52;81.16;97177.42;101952;1313;74783;-25
2021/12/01 08:59:28;;;;;;;6.40;4.70;;;;;;;0.51;81.21;97181.08;101654;1317;75789;-24
2021/12/01 09:02:00;;;;;;;8.00;4.80;;;;;;;0.63;80.43;97182.47;101966;1314;73230;-25
2021/12/01 09:04:29;;;;;;;4.70;3.60;;;;;;;0.64;80.35;97186.98;101704;1314;62205;-24
2021/12/01 09:06:57;;;;;;;6.30;4.90;;;;;;;0.66;80.50;97194.02;102141;1314;61443;-24
2021/12/01 09:09:26;;;;;;;7.30;5.20;;;;;;;0.41;81.28;97189.98;101981;1313;75675;-24
2021/12/01 09:11:55;;;;;;;6.10;4.40;;;;;;;0.36;81.70;97195.78;102086;1313;74963;-23
2021/12/01 09:14:23;;;;;;;5.30;4.10;;;;;;;0.33;81.97;97200.29;102016;1320;74721;-24
2021/12/01 09:16:53;;;;;;;6.40;4.70;;;;;;;0.82;80.21;97195.63;101848;1314;61224;-24
2021/12/01 09:19:22;;;;;;;7.00;4.40;;;;;;;0.92;79.69;97202.34;101782;1316;61216;-24
2021/12/01 09:21:51;;;;;;;8.30;4.80;;;;;;;0.75;80.12;97193.40;101835;1316;74749;-23
2021/12/01 09:24:21;;;;;;;7.50;4.80;;;;;;;0.41;81.18;97198.85;102194;1313;75881;-23
2021/12/01 09:26:49;;;;;;;7.10;5.30;;;;;;;0.34;81.58;97213.51;102084;1314;75103;-24
2021/12/01 09:29:18;;;;;;;5.80;4.90;;;;;;;0.49;81.52;97215.86;102327;1313;61177;-24
2021/12/01 09:31:47;;;;;;;6.70;5.40;;;;;;;0.85;80.19;97221.05;102064;1314;61215;-24
2021/12/01 09:34:15;;;;;;;7.30;4.50;;;;;;;0.63;80.63;97220.19;102112;1313;74621;-23
2021/12/01 09:36:44;;;;;;;7.60;5.20;;;;;;;0.52;81.04;97223.92;102142;1313;76459;-24
2021/12/01 09:39:12;;;;;;;6.10;4.80;;;;;;;0.42;81.30;97228.65;102059;1314;74668;-23
2021/12/01 09:41:41;;;;;;;7.20;5.10;;;;;;;0.22;82.03;97228.02;102108;1313;61649;-23
2021/12/01 09:44:09;;;;;;;5.80;4.50;;;;;;;0.72;80.73;97236.86;101853;1319;62002;-23
2021/12/01 09:46:38;;;;;;;6.40;5.10;;;;;;;0.64;80.73;97240.65;102103;1314;75638;-24
2021/12/01 09:49:07;;;;;;;6.00;4.20;;;;;;;0.68;80.78;97246.70;102028;1313;75028;-24
2021/12/01 09:51:36;;;;;;;7.60;6.50;;;;;;;0.39;81.65;97247.98;101992;1313;74173;-24
2021/12/01 09:54:05;;;;;;;6.80;4.90;;;;;;;0.20;82.35;97248.98;101999;1313;61087;-23
2021/12/01 09:56:33;;;;;;;5.90;5.00;;;;;;;0.28;82.08;97253.88;102003;1313;61189;-24
2021/12/01 09:59:07;;;;;;;7.40;5.50;;;;;;;0.60;80.94;97251.66;101876;1314;75676;-24
2021/12/01 10:01:36;;;;;;;7.10;5.40;;;;;;;0.57;80.43;97252.06;101929;1313;75819;-24
2021/12/01 10:04:06;;;;;;;8.10;6.20;;;;;;;0.53;80.03;97253.57;102020;1313;73494;-24
2021/12/01 10:06:35;;;;;;;8.80;6.50;;;;;;;0.34;80.42;97265.59;101852;1313;61138;-24
2021/12/01 10:09:07;;;;;;;7.10;5.60;;;;;;;0.15;80.88;97266.83;102076;1313;61105;-24
2021/12/01 10:11:37;;;;;;;7.80;5.30;;;;;;;0.34;80.33;97276.81;101796;1319;75437;-24
2021/12/01 10:14:07;;;;;;;8.80;5.20;;;;;;;0.54;78.95;97283.69;101755;1313;73377;-24
2021/12/01 10:16:38;;;;;;;8.60;5.60;;;;;;;0.44;78.77;97293.09;101740;1314;74232;-23
2021/12/01 10:19:08;;;;;;;9.50;5.20;;;;;;;0.21;79.02;97286.08;101681;1316;61378;-23
2021/12/01 10:21:42;;;;;;;6.40;4.30;;;;;;;0.20;79.61;97297.59;101744;1316;62110;-23
2021/12/01 10:24:11;;;;;;;;;;;;;;;0.08;79.69;97299.55;101754;1313;75850;-23
2021/12/01 10:26:39;;;;;;;6.00;4.60;;;;;;;0.43;78.93;97308.01;101922;1316;76439;-24
2021/12/01 10:29:11;;;;;;;6.60;4.60;;;;;;;0.66;77.91;97316.84;102257;1317;72223;-23
2021/12/01 10:31:39;;;;;;;7.70;4.90;;;;;;;0.48;77.82;97317.73;101862;1313;62453;-24
2021/12/01 10:34:18;;;;;;;6.40;5.10;;;;;;;0.35;78.56;97311.94;101942;1313;61211;-23
2021/12/01 10:36:49;;;;;;;7.90;5.40;;;;;;;0.20;78.92;97321.15;101483;1313;343088;-24
2021/12/01 10:39:17;;;;;;;6.70;5.00;;;;;;;0.13;79.86;97324.15;101751;1314;75036;-24
2021/12/01 10:41:46;;;;;;;5.60;3.90;;;;;;;0.41;78.25;97327.23;102015;1313;74463;-23
2021/12/01 10:44:17;;;;;;;8.20;4.60;;;;;;;0.66;76.87;97339.55;101982;1313;61313;-23
2021/12/01 10:46:50;;;;;;;5.40;4.00;;;;;;;0.81;76.34;97347.48;101769;1316;61531;-23
2021/12/01 10:49:34;;;;;;;7.40;5.10;;;;;;;0.60;76.61;97353.63;101763;1320;73788;-24
2021/12/01 10:52:03;;;;;;;5.80;4.40;;;;;;;0.55;77.27;97352.62;101789;1319;74667;-23
2021/12/01 10:54:32;;;;;;;8.50;6.30;;;;;;;0.46;77.86;97349.83;101743;1316;74656;-23
2021/12/01 10:57:18;;;;;;;6.10;4.90;;;;;;;0.11;78.06;97350.92;101993;1313;62922;-23
2021/12/01 10:59:49;;;;;;;9.10;6.00;;;;;;;0.30;76.92;97348.14;101821;1316;61841;-23
2021/12/01 11:02:19;;;;;;;7.70;5.50;;;;;;;0.46;76.42;97349.61;101838;1314;75751;-23
2021/12/01 11:04:51;;;;;;;9.20;4.50;;;;;;;0.46;76.58;97353.89;101772;1316;74593;-23
2021/12/01 11:07:27;;;;;;;5.20;4.20;;;;;;;0.34;75.98;97342.39;101788;1319;74515;-23
2021/12/01 11:10:20;;;;;;;6.10;3.80;;;;;;;0.29;76.67;97356.24;101901;1316;61185;-23
2021/12/01 11:12:59;;;;;;;7.90;5.50;;;;;;;0.25;76.07;97354.25;102112;1316;61181;-23
2021/12/01 11:15:34;;;;;;;5.20;3.90;;;;;;;0.27;75.66;97361.33;101811;1317;74791;-23
2021/12/01 11:18:25;;;;;;;5.60;3.80;;;;;;;0.69;74.88;97368.43;102016;1313;76238;-24
2021/12/01 11:21:16;;;;;;;7.00;4.60;;;;;;;0.58;74.22;97364.85;101828;1314;74545;-23
2021/12/01 11:23:50;;;;;;;6.70;3.80;;;;;;;0.52;74.68;97361.89;101972;1316;61415;-23
2021/12/01 11:26:28;;;;;;;6.40;3.90;;;;;;;0.24;74.22;97352.98;101702;1316;61216;-23
2021/12/01 11:28:59;;;;;;;5.20;4.10;;;;;;;0.11;74.82;97359.92;101849;1314;75714;-23
2021/12/01 11:31:33;;;;;;;7.10;5.00;;;;;;;-0.01;75.97;97363.95;101729;1319;74908;-23
2021/12/01 11:34:07;;;;;;;5.40;3.60;;;;;;;0.06;75.60;97367.42;101664;1314;74828;-23
2021/12/01 11:36:38;;;;;;;6.70;4.30;;;;;;;0.49;74.15;97383.95;101711;1314;61134;-23
2021/12/01 11:39:13;;;;;;;6.00;3.40;;;;;;;0.46;74.05;97385.83;101684;1316;61224;-24
2021/12/01 11:41:43;;;;;;;5.80;4.40;;;;;;;0.41;73.25;97393.33;101790;1314;72789;-23
2021/12/01 11:44:12;;;;;;;6.70;4.40;;;;;;;0.10;72.81;97399.13;101838;1316;75468;-24
2021/12/01 11:46:41;;;;;;;4.80;3.50;;;;;;;-0.19;73.56;97408.42;101666;1316;73540;-23
2021/12/01 11:49:11;;;;;;;6.40;4.50;;;;;;;-0.18;74.06;97420.83;102072;1313;61298;-23
2021/12/01 11:51:44;;;;;;;3.70;3.00;;;;;;;-0.22;75.22;97433.52;101736;1316;62091;-23
2021/12/01 11:54:19;;;;;;;5.20;4.00;;;;;;;0.37;73.42;97437.62;101907;1314;75736;-23
2021/12/01 11:57:06;;;;;;;6.90;4.40;;;;;;;0.34;71.73;97435.61;101778;1314;76184;-23
2021/12/01 11:59:36;;;;;;;5.70;3.50;;;;;;;0.28;72.20;97441.15;101721;1316;74596;-23
2021/12/01 12:02:20;;;;;;;5.50;3.90;;;;;;;0.12;71.39;97448.63;101729;1317;61153;-24
2021/12/01 12:04:53;;;;;;;5.40;3.50;;;;;;;-0.04;71.98;97445.89;101872;1317;61179;-23